createdAt,value
2019-03-22T00:04:45.239Z,13.50
2019-03-22T00:09:47.726Z,17.00
2019-03-22T00:14:50.217Z,12.27
2019-03-22T00:19:52.686Z,12.67
2019-03-22T00:24:55.147Z,12.27
2019-03-22T00:29:57.611Z,16.07
2019-03-22T00:35:00.090Z,16.20
2019-03-22T00:40:02.557Z,12.33
2019-03-22T00:45:07.840Z,12.97
2019-03-22T00:50:10.320Z,11.20
2019-03-22T00:55:12.780Z,11.90
2019-03-22T01:00:15.242Z,14.87
2019-03-22T01:05:17.707Z,13.17
2019-03-22T01:10:20.194Z,12.17
2019-03-22T01:15:22.674Z,10.80
2019-03-22T01:20:25.191Z,11.23
2019-03-22T01:25:27.659Z,12.20
2019-03-22T01:30:30.127Z,14.30
2019-03-22T01:35:35.634Z,11.77
2019-03-22T01:40:36.650Z,13.13
2019-03-22T01:45:39.118Z,10.60
2019-03-22T01:50:41.584Z,14.67
2019-03-22T01:55:44.047Z,12.50
2019-03-22T02:00:46.511Z,13.57
2019-03-22T02:05:48.975Z,12.07
2019-03-22T02:10:51.460Z,11.07
2019-03-22T02:15:53.904Z,13.10
2019-03-22T02:20:56.399Z,10.30
2019-03-22T02:25:58.869Z,10.40
2019-03-22T02:31:01.319Z,22.57
2019-03-22T02:36:03.772Z,10.80
2019-03-22T02:41:06.261Z,13.17
2019-03-22T02:46:08.714Z,11.57
2019-03-22T02:51:11.187Z,9.77
2019-03-22T02:56:13.753Z,11.27
2019-03-22T03:01:16.154Z,13.80
2019-03-22T03:06:18.616Z,8.53
2019-03-22T03:11:21.070Z,12.63
2019-03-22T03:16:23.535Z,10.33
2019-03-22T03:21:26.009Z,11.00
2019-03-22T03:26:28.483Z,10.10
2019-03-22T03:31:30.968Z,10.07
2019-03-22T03:36:35.061Z,10.73
2019-03-22T03:41:35.935Z,12.73
2019-03-22T03:46:38.390Z,9.37
2019-03-22T03:51:40.843Z,9.40
2019-03-22T03:56:43.310Z,10.43
2019-03-22T04:01:45.819Z,9.03
2019-03-22T04:06:48.347Z,9.47
2019-03-22T04:11:50.812Z,10.43
2019-03-22T04:16:53.298Z,9.00
2019-03-22T04:21:55.788Z,9.23
2019-03-22T04:26:58.438Z,10.70
2019-03-22T04:32:00.903Z,9.57
2019-03-22T04:37:03.368Z,10.63
2019-03-22T04:42:05.829Z,10.37
2019-03-22T04:47:08.316Z,7.93
2019-03-22T04:52:10.785Z,12.70
2019-03-22T04:57:13.249Z,10.03
2019-03-22T05:02:15.786Z,7.80
2019-03-22T05:07:18.248Z,11.80
2019-03-22T05:12:20.669Z,12.60
2019-03-22T05:17:23.133Z,9.47
2019-03-22T05:22:25.651Z,10.07
2019-03-22T05:27:28.132Z,11.00
2019-03-22T05:32:30.583Z,12.13
2019-03-22T05:37:33.047Z,15.90
2019-03-22T05:42:35.517Z,12.17
2019-03-22T05:47:37.988Z,12.20
2019-03-22T05:52:40.472Z,10.50
2019-03-22T05:57:42.960Z,13.33
2019-03-22T06:02:45.440Z,11.80
2019-03-22T06:07:47.912Z,15.93
2019-03-22T06:12:50.549Z,11.37
2019-03-22T06:17:53.010Z,11.90
2019-03-22T06:22:55.495Z,16.70
2019-03-22T06:27:57.965Z,13.97
2019-03-22T06:33:00.474Z,10.50
2019-03-22T06:38:02.938Z,13.07
2019-03-22T06:43:05.407Z,13.23
2019-03-22T06:48:07.880Z,12.40
2019-03-22T06:53:10.351Z,10.13
2019-03-22T06:58:12.809Z,10.47
2019-03-22T07:03:15.276Z,14.07
2019-03-22T07:08:17.755Z,13.73
2019-03-22T07:13:20.251Z,14.10
2019-03-22T07:18:22.733Z,9.10
2019-03-22T07:23:25.233Z,17.00
2019-03-22T07:28:27.691Z,14.27
2019-03-22T07:33:30.172Z,16.00
2019-03-22T07:38:32.645Z,11.13
2019-03-22T07:43:35.151Z,12.53
2019-03-22T07:48:37.614Z,15.43
2019-03-22T07:53:40.136Z,16.60
2019-03-22T07:58:42.603Z,12.73
2019-03-22T08:03:45.077Z,11.30
2019-03-22T08:08:47.548Z,11.23
2019-03-22T08:13:50.038Z,11.87
2019-03-22T08:18:52.512Z,8.50
2019-03-22T08:23:54.991Z,10.07
2019-03-22T08:28:57.500Z,8.73
2019-03-22T08:34:00.075Z,8.13
2019-03-22T08:39:02.580Z,7.80
2019-03-22T08:44:05.041Z,13.70
2019-03-22T08:49:09.512Z,13.20
2019-03-22T08:54:09.991Z,11.83
2019-03-22T08:59:13.540Z,14.20
2019-03-22T09:04:14.913Z,9.47
2019-03-22T09:09:41.577Z,11.80
2019-03-22T09:14:39.519Z,12.27
2019-03-22T09:19:42.009Z,15.20
2019-03-22T09:24:44.459Z,9.45
2019-03-22T09:29:47.518Z,10.50
2019-03-22T09:34:49.432Z,13.00
2019-03-22T09:39:51.913Z,7.68
2019-03-22T09:44:54.393Z,8.10
2019-03-22T09:49:56.909Z,8.40
2019-03-22T09:55:12.194Z,9.52
2019-03-22T10:00:01.840Z,7.45
2019-03-22T10:05:04.367Z,8.48
2019-03-22T10:10:06.789Z,6.80
2019-03-22T10:15:09.471Z,12.95
2019-03-22T10:20:22.637Z,8.00
2019-03-22T10:25:14.522Z,11.73
2019-03-22T10:30:16.968Z,18.90
2019-03-22T10:35:25.922Z,10.30
2019-03-22T10:40:21.936Z,8.05
2019-03-22T10:45:24.342Z,8.32
2019-03-22T10:50:26.874Z,7.18
2019-03-22T10:55:30.704Z,8.70
2019-03-22T11:00:31.725Z,8.25
2019-03-22T11:05:34.204Z,7.25
2019-03-22T11:10:36.659Z,6.75
2019-03-22T11:15:48.136Z,6.25
2019-03-22T11:20:41.718Z,7.00
2019-03-22T11:25:44.167Z,9.85
2019-03-22T11:30:46.656Z,10.93
2019-03-22T11:35:49.168Z,12.37
2019-03-22T11:40:51.638Z,8.50
2019-03-22T11:45:54.101Z,13.73
2019-03-22T11:50:56.582Z,12.50
2019-03-22T11:55:59.054Z,12.33
2019-03-22T12:01:01.513Z,8.47
2019-03-22T12:06:03.976Z,11.23
2019-03-22T12:11:06.430Z,9.43
2019-03-22T12:16:08.916Z,10.37
2019-03-22T12:21:11.376Z,7.87
2019-03-22T12:26:13.847Z,10.73
2019-03-22T12:31:16.324Z,9.37
2019-03-22T12:36:18.800Z,9.83
2019-03-22T12:41:21.263Z,10.07
2019-03-22T12:46:23.753Z,11.13
2019-03-22T12:51:26.238Z,7.63
2019-03-22T12:56:28.729Z,11.17
2019-03-22T13:01:31.192Z,6.90
2019-03-22T13:06:33.666Z,7.60
2019-03-22T13:11:36.299Z,7.53
2019-03-22T13:16:38.754Z,9.23
2019-03-22T13:21:41.217Z,8.63
2019-03-22T13:26:43.715Z,7.60
2019-03-22T13:31:46.197Z,8.13
2019-03-22T13:36:48.680Z,11.03
2019-03-22T13:41:51.150Z,7.50
2019-03-22T13:46:53.603Z,8.17
2019-03-22T13:51:56.072Z,12.20
2019-03-22T13:56:58.538Z,11.40
2019-03-22T14:02:01.032Z,6.23
2019-03-22T14:07:03.505Z,9.77
2019-03-22T14:12:05.993Z,7.90
2019-03-22T14:17:08.478Z,12.43
2019-03-22T14:22:10.958Z,6.77
2019-03-22T14:27:13.408Z,8.60
2019-03-22T14:32:15.869Z,7.33
2019-03-22T14:37:18.360Z,9.83
2019-03-22T14:42:20.826Z,9.63
2019-03-22T14:47:23.306Z,10.80
2019-03-22T14:52:25.760Z,6.80
2019-03-22T14:57:28.241Z,11.30
2019-03-22T15:02:30.716Z,6.77
2019-03-22T15:07:33.200Z,6.93
2019-03-22T15:12:35.645Z,8.10
2019-03-22T15:17:56.238Z,7.57
2019-03-22T15:23:10.695Z,8.53
2019-03-22T15:28:22.144Z,8.80
2019-03-22T15:33:34.645Z,5.77
2019-03-22T15:38:48.030Z,7.17
2019-03-22T15:43:50.310Z,5.37
2019-03-22T15:48:52.787Z,6.00
2019-03-22T15:53:55.244Z,6.60
2019-03-22T15:58:57.766Z,9.20
2019-03-22T16:04:00.247Z,10.47
2019-03-22T16:09:02.701Z,7.03
2019-03-22T16:14:05.169Z,11.57
2019-03-22T16:19:07.615Z,6.10
2019-03-22T16:24:10.668Z,8.23
2019-03-22T16:29:13.103Z,9.13
2019-03-22T16:34:15.568Z,8.57
2019-03-22T16:39:18.064Z,6.00
2019-03-22T16:44:20.528Z,11.63
2019-03-22T16:49:22.986Z,8.23
2019-03-22T16:54:29.499Z,11.90
2019-03-22T16:59:31.969Z,11.33
2019-03-22T17:04:34.440Z,9.83
2019-03-22T17:09:36.920Z,10.17
2019-03-22T17:14:39.383Z,12.10
2019-03-22T17:19:41.861Z,11.03
2019-03-22T17:24:44.339Z,11.70
2019-03-22T17:29:46.803Z,8.53
2019-03-22T17:34:49.289Z,9.20
2019-03-22T17:39:51.751Z,12.10
2019-03-22T17:44:54.222Z,6.67
2019-03-22T17:49:56.686Z,7.30
2019-03-22T17:54:59.153Z,12.03
2019-03-22T18:00:01.613Z,15.10
2019-03-22T18:05:04.101Z,10.30
2019-03-22T18:10:06.576Z,10.90
2019-03-22T18:15:09.043Z,10.33
2019-03-22T18:20:14.200Z,12.83
2019-03-22T18:25:16.668Z,8.50
2019-03-22T18:30:19.128Z,11.13
2019-03-22T18:35:21.612Z,11.77
2019-03-22T18:40:24.067Z,14.93
2019-03-22T18:45:26.532Z,16.37
2019-03-22T18:50:28.999Z,20.97
2019-03-22T18:55:31.481Z,18.73
2019-03-22T19:00:33.959Z,15.47
2019-03-22T19:05:36.447Z,14.93
2019-03-22T19:10:38.950Z,14.03
2019-03-22T19:15:41.446Z,17.03
2019-03-22T19:20:43.926Z,29.77
2019-03-22T19:25:46.409Z,46.27
2019-03-22T19:30:48.882Z,44.60
2019-03-22T19:35:51.372Z,35.60
2019-03-22T19:40:53.848Z,31.67
2019-03-22T19:45:56.354Z,33.37
2019-03-22T19:50:58.801Z,33.33
2019-03-22T19:56:01.278Z,26.67
2019-03-22T20:01:03.778Z,25.33
2019-03-22T20:06:06.274Z,24.13
2019-03-22T20:11:08.742Z,19.57
2019-03-22T20:16:11.200Z,25.10
2019-03-22T20:21:13.665Z,22.83
2019-03-22T20:26:16.155Z,35.33
2019-03-22T20:31:18.653Z,40.53
2019-03-22T20:36:21.127Z,34.87
2019-03-22T20:41:23.604Z,31.37
2019-03-22T20:46:26.073Z,25.30
2019-03-22T20:51:28.560Z,23.53
2019-03-22T20:56:31.032Z,20.83
2019-03-22T21:01:33.507Z,21.10
2019-03-22T21:06:35.989Z,21.87
2019-03-22T21:11:38.455Z,16.57
2019-03-22T21:16:40.941Z,18.63
2019-03-22T21:21:43.422Z,20.53
2019-03-22T21:26:45.904Z,16.90
2019-03-22T21:31:48.399Z,26.60
2019-03-22T21:36:50.863Z,20.30
2019-03-22T21:41:53.343Z,25.63
2019-03-22T21:46:55.898Z,22.80
2019-03-22T21:51:58.307Z,19.03
2019-03-22T21:57:00.805Z,21.27
2019-03-22T22:02:03.320Z,17.27
2019-03-22T22:07:05.850Z,19.43
2019-03-22T22:12:08.342Z,17.20
2019-03-22T22:17:10.842Z,15.40
2019-03-22T22:22:13.318Z,16.17
2019-03-22T22:27:15.839Z,16.60
2019-03-22T22:32:18.294Z,16.90
2019-03-22T22:37:20.805Z,17.00
2019-03-22T22:42:23.293Z,16.63
2019-03-22T22:47:25.776Z,18.33
2019-03-22T22:52:31.049Z,16.30
2019-03-22T22:57:33.542Z,13.70
2019-03-22T23:02:36.010Z,15.67
2019-03-22T23:07:38.515Z,14.30
2019-03-22T23:12:40.976Z,15.00
2019-03-22T23:17:43.455Z,15.57
2019-03-22T23:22:45.906Z,18.70
2019-03-22T23:27:48.383Z,16.87
2019-03-22T23:32:50.869Z,18.60
2019-03-22T23:37:53.341Z,19.07
2019-03-22T23:42:55.827Z,13.93
2019-03-22T23:47:58.300Z,18.83
2019-03-22T23:53:00.776Z,20.57
2019-03-22T23:58:03.249Z,16.30
